Time,TemperatureF,DewpointF,PressureIn,WindDirection,WindDirectionDegrees,WindSpeedMPH,WindSpeedGustMPH,Humidity,HourlyPrecipIn,Conditions,Clouds,dailyrainin,SoftwareType,DateUTC
2013-04-07 00:05:00,27.4,27.4,30.24,SW,225,0.0,0.0,100,0.00,,,0.00,WSDL version 423,2013-04-07 04:05:00,
2013-04-07 00:15:00,27.3,27.3,30.22,SW,225,0.0,0.0,100,0.00,,,0.00,WSDL version 423,2013-04-07 04:15:00,
2013-04-07 00:25:00,27.1,27.1,30.23,SW,225,0.0,0.0,100,0.00,,,0.00,WSDL version 423,2013-04-07 04:25:00,
2013-04-07 00:35:00,27.1,27.1,30.23,SW,225,0.0,0.0,100,0.00,,,0.00,WSDL version 423,2013-04-07 04:35:00,
2013-04-07 00:45:00,27.0,27.0,30.22,SW,225,0.0,0.0,100,0.00,,,0.00,WSDL version 423,2013-04-07 04:45:00,
2013-04-07 00:55:00,26.8,26.8,30.22,SW,225,0.0,0.0,100,0.00,,,0.00,WSDL version 423,2013-04-07 04:55:00,
2013-04-07 01:05:00,26.4,26.4,30.22,SW,225,0.0,0.0,100,0.00,,,0.00,WSDL version 423,2013-04-07 05:05:00,
2013-04-07 01:15:00,26.3,26.3,30.22,SW,225,0.0,0.0,100,0.00,,,0.00,WSDL version 423,2013-04-07 05:15:00,
2013-04-07 01:25:00,26.3,26.3,30.22,SW,225,0.0,0.0,100,0.00,,,0.00,WSDL version 423,2013-04-07 05:25:00,
2013-04-07 01:35:00,26.4,26.4,30.21,SW,225,0.0,0.0,100,0.00,,,0.00,WSDL version 423,2013-04-07 05:35:00,
2013-04-07 01:45:00,26.3,26.3,30.20,SW,225,0.0,0.0,100,0.00,,,0.00,WSDL version 423,2013-04-07 05:45:00,
2013-04-07 01:55:00,26.1,26.1,30.20,SW,225,0.0,0.0,100,0.00,,,0.00,WSDL version 423,2013-04-07 05:55:00,
2013-04-07 02:05:00,26.1,26.1,30.20,SW,225,0.0,0.0,100,0.00,,,0.00,WSDL version 423,2013-04-07 06:05:00,
2013-04-07 02:15:00,26.1,26.1,30.20,SW,225,0.0,0.0,100,0.00,,,0.00,WSDL version 423,2013-04-07 06:15:00,
2013-04-07 02:25:00,25.9,25.9,30.20,SW,225,0.0,0.0,100,0.00,,,0.00,WSDL version 423,2013-04-07 06:25:00,
2013-04-07 02:35:00,25.9,25.9,30.19,SW,225,0.0,0.0,100,0.00,,,0.00,WSDL version 423,2013-04-07 06:35:00,
2013-04-07 02:45:00,25.7,25.7,30.19,SW,225,0.0,0.0,100,0.00,,,0.00,WSDL version 423,2013-04-07 06:45:00,
2013-04-07 02:56:00,25.6,25.6,30.18,SW,225,0.0,0.0,100,0.00,,,0.00,WSDL version 423,2013-04-07 06:56:00,
2013-04-07 03:06:00,25.6,25.6,30.18,SW,225,0.0,0.0,100,0.00,,,0.00,WSDL version 423,2013-04-07 07:06:00,
2013-04-07 03:16:00,25.5,25.5,30.18,SW,225,0.0,0.0,100,0.00,,,0.00,WSDL version 423,2013-04-07 07:16:00,
2013-04-07 03:26:00,25.3,25.3,30.17,SW,225,0.0,0.0,100,0.00,,,0.00,WSDL version 423,2013-04-07 07:26:00,
2013-04-07 03:38:00,25.3,25.3,30.18,SW,225,0.0,0.0,100,0.00,,,0.00,WSDL version 423,2013-04-07 07:38:00,
2013-04-07 03:48:00,25.1,25.1,30.17,SW,225,0.0,0.0,100,0.00,,,0.00,WSDL version 423,2013-04-07 07:48:00,
2013-04-07 03:58:00,24.8,24.8,30.17,SW,225,0.0,0.0,100,0.00,,,0.00,WSDL version 423,2013-04-07 07:58:00,
2013-04-07 04:08:00,24.9,24.9,30.17,SW,225,0.0,0.0,100,0.00,,,0.00,WSDL version 423,2013-04-07 08:08:00,
2013-04-07 04:18:00,24.8,24.8,30.17,SW,225,0.0,0.0,100,0.00,,,0.00,WSDL version 423,2013-04-07 08:18:00,
2013-04-07 04:28:00,24.6,24.6,30.17,SW,225,0.0,0.0,100,0.00,,,0.00,WSDL version 423,2013-04-07 08:28:00,
2013-04-07 04:38:00,24.5,24.5,30.17,SW,225,0.0,0.0,100,0.00,,,0.00,WSDL version 423,2013-04-07 08:38:00,
2013-04-07 04:48:00,24.5,24.5,30.17,SW,225,0.0,0.0,100,0.00,,,0.00,WSDL version 423,2013-04-07 08:48:00,
2013-04-07 04:58:00,24.4,24.4,30.17,SW,225,0.0,0.0,100,0.00,,,0.00,WSDL version 423,2013-04-07 08:58:00,
2013-04-07 05:08:00,24.4,24.4,30.17,SW,225,0.0,0.0,100,0.00,,,0.00,WSDL version 423,2013-04-07 09:08:00,
2013-04-07 05:18:00,24.4,24.4,30.17,SW,225,0.0,0.0,100,0.00,,,0.00,WSDL version 423,2013-04-07 09:18:00,
2013-04-07 05:28:00,24.2,24.2,30.17,SW,225,0.0,0.0,100,0.00,,,0.00,WSDL version 423,2013-04-07 09:28:00,
2013-04-07 05:38:00,24.1,24.1,30.18,SW,225,0.0,0.0,100,0.00,,,0.00,WSDL version 423,2013-04-07 09:38:00,
2013-04-07 05:48:00,24.1,24.1,30.18,SW,225,0.0,0.0,100,0.00,,,0.00,WSDL version 423,2013-04-07 09:48:00,
2013-04-07 05:58:00,23.9,23.9,30.18,SW,225,0.0,0.0,100,0.00,,,0.00,WSDL version 423,2013-04-07 09:58:00,
2013-04-07 06:08:00,23.7,23.7,30.18,SW,225,0.0,0.0,100,0.00,,,0.00,WSDL version 423,2013-04-07 10:08:00,
2013-04-07 06:18:00,23.5,23.5,30.18,SW,225,0.0,0.0,100,0.00,,,0.00,WSDL version 423,2013-04-07 10:18:00,
2013-04-07 06:28:00,23.8,23.8,30.19,SW,225,0.0,0.0,100,0.00,,,0.00,WSDL version 423,2013-04-07 10:28:00,
2013-04-07 06:38:00,24.2,24.2,30.19,SW,225,0.0,0.0,100,0.00,,,0.00,WSDL version 423,2013-04-07 10:38:00,
2013-04-07 06:48:00,24.7,24.7,30.20,SW,225,0.0,0.0,100,0.00,,,0.00,WSDL version 423,2013-04-07 10:48:00,
2013-04-07 06:58:00,25.5,25.5,30.20,SW,225,0.0,0.0,100,0.00,,,0.00,WSDL version 423,2013-04-07 10:58:00,
2013-04-07 07:10:00,26.1,26.1,30.20,SW,225,0.0,0.0,100,0.00,,,0.00,WSDL version 423,2013-04-07 11:10:00,
2013-04-07 07:20:00,26.9,26.9,30.20,SW,225,0.0,0.0,100,0.00,,,0.00,WSDL version 423,2013-04-07 11:20:00,
2013-04-07 07:30:00,27.6,27.6,30.21,SW,225,0.0,0.0,100,0.00,,,0.00,WSDL version 423,2013-04-07 11:30:00,
2013-04-07 07:40:00,28.5,28.5,30.21,SW,225,0.0,0.0,100,0.00,,,0.00,WSDL version 423,2013-04-07 11:40:00,
2013-04-07 07:50:00,30.1,30.1,30.21,SW,225,0.0,0.0,100,0.00,,,0.00,WSDL version 423,2013-04-07 11:50:00,
2013-04-07 08:00:00,32.6,32.6,30.21,SW,225,0.0,0.0,100,0.00,,,0.00,WSDL version 423,2013-04-07 12:00:00,
2013-04-07 08:10:00,34.8,34.8,30.21,SW,225,0.0,3.1,100,0.00,,,0.00,WSDL version 423,2013-04-07 12:10:00,
2013-04-07 08:20:00,36.9,36.9,30.21,West,270,0.0,2.2,100,0.00,,,0.00,WSDL version 423,2013-04-07 12:20:00,
2013-04-07 08:30:00,38.9,38.9,30.21,SSW,203,2.5,4.5,100,0.00,,,0.00,WSDL version 423,2013-04-07 12:30:00,
2013-04-07 08:40:00,40.6,40.6,30.20,SSW,203,0.0,3.6,100,0.00,,,0.00,WSDL version 423,2013-04-07 12:40:00,
2013-04-07 08:50:00,40.6,40.6,30.20,South,180,1.6,5.4,100,0.00,,,0.00,WSDL version 423,2013-04-07 12:50:00,
2013-04-07 09:00:00,41.4,41.4,30.20,WNW,288,2.0,3.6,100,0.00,,,0.00,WSDL version 423,2013-04-07 13:00:00,
2013-04-07 09:10:00,41.8,41.8,30.19,South,172,0.0,4.0,100,0.00,,,0.00,WSDL version 423,2013-04-07 13:10:00,
2013-04-07 09:20:00,44.2,44.2,30.19,SW,236,1.4,4.9,100,0.00,,,0.00,WSDL version 423,2013-04-07 13:20:00,
2013-04-07 09:30:00,46.0,46.0,30.18,SSW,212,3.0,5.4,100,0.00,,,0.00,WSDL version 423,2013-04-07 13:30:00,
2013-04-07 09:40:00,47.6,47.6,30.17,SSW,208,3.4,5.8,100,0.00,,,0.00,WSDL version 423,2013-04-07 13:40:00,
2013-04-07 09:50:00,48.7,48.7,30.17,NW,321,2.3,4.9,100,0.00,,,0.00,WSDL version 423,2013-04-07 13:50:00,
2013-04-07 10:00:00,49.4,49.4,30.16,South,186,3.6,5.8,100,0.00,,,0.00,WSDL version 423,2013-04-07 14:00:00,
2013-04-07 10:10:00,51.6,51.6,30.16,WSW,257,2.7,4.9,100,0.00,,,0.00,WSDL version 423,2013-04-07 14:10:00,
2013-04-07 10:20:00,52.3,52.3,30.15,SW,214,3.9,5.4,100,0.00,,,0.00,WSDL version 423,2013-04-07 14:20:00,
2013-04-07 10:30:00,52.6,52.6,30.15,WSW,244,2.0,8.3,100,0.00,,,0.00,WSDL version 423,2013-04-07 14:30:00,
2013-04-07 10:40:00,52.8,52.8,30.14,South,180,4.3,8.3,100,0.00,,,0.00,WSDL version 423,2013-04-07 14:40:00,
2013-04-07 10:50:00,50.4,50.4,30.14,SW,219,3.8,6.3,100,0.00,,,0.00,WSDL version 423,2013-04-07 14:50:00,
2013-04-07 11:00:00,49.8,49.8,30.13,SSW,203,1.6,7.6,100,0.00,,,0.00,WSDL version 423,2013-04-07 15:00:00,
2013-04-07 11:10:00,49.2,49.2,30.12,SSW,203,4.5,8.7,100,0.00,,,0.00,WSDL version 423,2013-04-07 15:10:00,
2013-04-07 11:20:00,48.8,48.8,30.12,South,188,3.5,7.2,100,0.00,,,0.00,WSDL version 423,2013-04-07 15:20:00,
2013-04-07 11:30:00,48.9,48.9,30.11,SSW,205,3.3,7.6,100,0.00,,,0.00,WSDL version 423,2013-04-07 15:30:00,
2013-04-07 11:40:00,49.6,49.6,30.11,SW,214,1.6,9.6,100,0.00,,,0.00,WSDL version 423,2013-04-07 15:40:00,
2013-04-07 11:50:00,51.3,51.3,30.10,South,177,1.3,7.6,100,0.00,,,0.00,WSDL version 423,2013-04-07 15:50:00,
2013-04-07 12:00:00,53.1,53.1,30.09,SSW,207,4.3,7.6,100,0.00,,,0.00,WSDL version 423,2013-04-07 16:00:00,
2013-04-07 12:10:00,55.5,55.5,30.09,South,190,5.5,7.2,100,0.00,,,0.00,WSDL version 423,2013-04-07 16:10:00,
2013-04-07 12:20:00,58.4,58.4,30.08,South,178,3.0,11.0,100,0.00,,,0.00,WSDL version 423,2013-04-07 16:20:00,
2013-04-07 12:30:00,58.2,58.2,30.07,East,87,3.6,8.1,100,0.00,,,0.00,WSDL version 423,2013-04-07 16:30:00,
2013-04-07 12:40:00,57.7,57.7,30.06,ESE,107,5.3,8.3,100,0.00,,,0.00,WSDL version 423,2013-04-07 16:40:00,
2013-04-07 12:49:00,56.8,56.8,30.05,SSE,149,4.3,8.3,100,0.00,,,0.00,WSDL version 423,2013-04-07 16:49:00,
2013-04-07 12:59:00,56.2,56.2,30.05,SW,235,1.8,9.6,100,0.00,,,0.00,WSDL version 423,2013-04-07 16:59:00,
2013-04-07 13:09:00,57.5,57.5,30.04,SSW,193,5.2,8.3,100,0.00,,,0.00,WSDL version 423,2013-04-07 17:09:00,
2013-04-07 13:19:00,56.1,56.1,30.03,SW,214,5.0,9.6,100,0.00,,,0.00,WSDL version 423,2013-04-07 17:19:00,
2013-04-07 13:29:00,57.7,57.7,30.02,SW,218,5.8,10.1,100,0.00,,,0.00,WSDL version 423,2013-04-07 17:29:00,
2013-04-07 13:39:00,57.2,57.2,30.01,South,175,4.6,8.7,100,0.00,,,0.00,WSDL version 423,2013-04-07 17:39:00,
2013-04-07 13:49:00,57.4,57.4,30.01,NE,35,5.0,9.6,100,-99.99,,,-99.99,WSDL version 423,2013-04-07 17:49:00,
2013-04-07 13:59:00,58.5,58.5,30.00,SSW,196,5.1,8.7,100,0.00,,,0.00,WSDL version 423,2013-04-07 17:59:00,
2013-04-07 14:09:00,58.9,58.9,30.00,SSW,194,3.0,10.1,100,0.00,,,0.00,WSDL version 423,2013-04-07 18:09:00,
2013-04-07 14:19:00,58.0,58.0,30.00,SSW,194,3.3,8.1,100,0.00,,,0.00,WSDL version 423,2013-04-07 18:19:00,
2013-04-07 14:29:00,57.5,57.5,29.99,SSW,193,4.9,9.6,100,0.00,,,0.00,WSDL version 423,2013-04-07 18:29:00,
2013-04-07 14:39:00,60.1,60.1,29.98,SW,222,4.9,8.1,100,0.00,,,0.00,WSDL version 423,2013-04-07 18:39:00,
2013-04-07 14:49:00,61.0,61.0,29.97,WSW,241,5.9,8.7,100,0.00,,,0.00,WSDL version 423,2013-04-07 18:49:00,
2013-04-07 14:59:00,60.3,60.3,29.96,SW,217,4.4,8.3,100,0.00,,,0.00,WSDL version 423,2013-04-07 18:59:00,
2013-04-07 15:09:00,59.8,59.8,29.97,SSE,167,2.9,7.6,100,0.00,,,0.00,WSDL version 423,2013-04-07 19:09:00,
2013-04-07 15:19:00,59.6,59.6,29.96,SSW,197,4.3,9.6,100,0.00,,,0.00,WSDL version 423,2013-04-07 19:19:00,
2013-04-07 15:29:00,58.5,58.5,29.95,SW,236,4.2,8.1,100,0.00,,,0.00,WSDL version 423,2013-04-07 19:29:00,
2013-04-07 15:39:00,59.5,59.5,29.95,South,185,5.0,10.1,100,0.00,,,0.00,WSDL version 423,2013-04-07 19:39:00,
2013-04-07 15:49:00,59.5,59.5,29.94,South,190,4.2,7.6,100,0.00,,,0.00,WSDL version 423,2013-04-07 19:49:00,
2013-04-07 15:59:00,57.0,57.0,29.94,SSW,209,5.7,11.0,100,0.00,,,0.00,WSDL version 423,2013-04-07 19:59:00,
2013-04-07 16:09:00,58.0,58.0,29.94,SSE,151,4.4,10.1,100,0.00,,,0.00,WSDL version 423,2013-04-07 20:09:00,
2013-04-07 16:19:00,57.8,57.8,29.93,South,169,4.4,8.7,100,0.00,,,0.00,WSDL version 423,2013-04-07 20:19:00,
2013-04-07 16:29:00,57.9,57.9,29.92,SSW,197,4.4,7.2,100,0.00,,,0.00,WSDL version 423,2013-04-07 20:29:00,
2013-04-07 16:39:00,56.7,56.7,29.92,SSW,197,4.9,9.6,100,0.00,,,0.00,WSDL version 423,2013-04-07 20:39:00,
2013-04-07 16:49:00,56.2,56.2,29.92,South,188,3.5,8.1,100,0.00,,,0.00,WSDL version 423,2013-04-07 20:49:00,
2013-04-07 16:59:00,56.6,56.6,29.91,SSW,210,4.0,8.1,100,0.00,,,0.00,WSDL version 423,2013-04-07 20:59:00,
2013-04-07 17:09:00,56.2,56.2,29.90,SSE,167,0.0,4.0,100,0.00,,,0.00,WSDL version 423,2013-04-07 21:09:00,
2013-04-07 17:19:00,54.9,54.9,29.90,SSW,194,4.8,11.0,100,0.00,,,0.00,WSDL version 423,2013-04-07 21:19:00,
2013-04-07 17:29:00,54.3,54.3,29.89,SSW,206,5.0,11.0,100,0.00,,,0.00,WSDL version 423,2013-04-07 21:29:00,
2013-04-07 17:39:00,53.1,53.1,29.90,SSW,203,4.4,8.7,100,0.00,,,0.00,WSDL version 423,2013-04-07 21:39:00,
2013-04-07 17:49:00,52.8,52.8,29.91,SSE,158,5.0,10.5,100,0.00,,,0.00,WSDL version 423,2013-04-07 21:49:00,
2013-04-07 17:59:00,52.3,52.3,29.91,South,188,5.6,12.8,100,0.00,,,0.00,WSDL version 423,2013-04-07 21:59:00,
2013-04-07 18:09:00,51.8,51.8,29.91,SSW,205,4.8,11.4,100,0.00,,,0.00,WSDL version 423,2013-04-07 22:09:00,
2013-04-07 18:19:00,51.3,51.3,29.93,South,176,4.8,8.7,100,0.00,,,0.00,WSDL version 423,2013-04-07 22:19:00,
2013-04-07 18:29:00,50.8,50.8,29.94,SSW,210,4.2,7.6,100,0.00,,,0.00,WSDL version 423,2013-04-07 22:29:00,
2013-04-07 18:39:00,50.3,50.3,29.94,WSW,244,0.0,6.7,100,0.00,,,0.00,WSDL version 423,2013-04-07 22:39:00,
2013-04-07 18:53:00,49.8,49.8,29.93,ESE,104,3.1,7.6,100,0.00,,,0.00,WSDL version 423,2013-04-07 22:53:00,
2013-04-07 19:03:00,49.6,49.6,29.94,SW,230,3.0,6.3,100,0.00,,,0.00,WSDL version 423,2013-04-07 23:03:00,
2013-04-07 19:13:00,49.2,49.2,29.93,South,188,3.6,5.8,100,0.00,,,0.00,WSDL version 423,2013-04-07 23:13:00,
2013-04-07 19:23:00,49.0,49.0,29.91,South,178,4.2,8.1,100,0.00,,,0.00,WSDL version 423,2013-04-07 23:23:00,
2013-04-07 19:33:00,48.9,48.9,29.89,SSE,165,3.7,7.6,100,0.00,,,0.00,WSDL version 423,2013-04-07 23:33:00,
2013-04-07 19:43:00,48.7,48.7,29.92,SE,143,4.9,8.1,100,0.00,,,0.00,WSDL version 423,2013-04-07 23:43:00,
2013-04-07 19:53:00,48.7,48.7,29.93,South,180,4.3,7.6,100,0.00,,,0.00,WSDL version 423,2013-04-07 23:53:00,
2013-04-07 20:03:00,48.7,48.7,29.93,South,177,2.2,5.8,100,0.00,,,0.00,WSDL version 423,2013-04-08 00:03:00,
2013-04-07 20:13:00,48.6,48.6,29.93,SSW,199,3.0,5.8,100,0.00,,,0.00,WSDL version 423,2013-04-08 00:13:00,
2013-04-07 20:23:00,48.3,48.3,29.93,South,169,2.8,8.1,100,0.00,,,0.00,WSDL version 423,2013-04-08 00:23:00,
2013-04-07 20:33:00,47.9,47.9,29.93,SSW,206,3.6,6.3,100,0.00,,,0.00,WSDL version 423,2013-04-08 00:33:00,
2013-04-07 20:43:00,47.5,47.5,29.93,SW,225,1.5,5.8,100,0.00,,,0.00,WSDL version 423,2013-04-08 00:43:00,
2013-04-07 20:53:00,47.0,47.0,29.92,SSW,199,2.4,5.4,100,0.00,,,0.00,WSDL version 423,2013-04-08 00:53:00,
2013-04-07 21:03:00,46.6,46.6,29.92,SW,225,3.1,5.4,100,0.00,,,0.00,WSDL version 423,2013-04-08 01:03:00,
2013-04-07 21:13:00,46.4,46.4,29.92,SSW,209,3.5,6.3,100,0.00,,,0.00,WSDL version 423,2013-04-08 01:13:00,
2013-04-07 21:23:00,46.2,46.2,29.91,South,190,3.5,5.4,100,0.00,,,0.00,WSDL version 423,2013-04-08 01:23:00,
2013-04-07 21:33:00,46.2,46.2,29.91,SSW,194,2.0,5.4,100,0.00,,,0.00,WSDL version 423,2013-04-08 01:33:00,
2013-04-07 21:43:00,45.9,45.9,29.92,SSE,163,0.0,8.3,100,0.00,,,0.00,WSDL version 423,2013-04-08 01:43:00,
2013-04-07 21:53:00,45.9,45.9,29.91,South,190,2.8,5.4,100,0.00,,,0.00,WSDL version 423,2013-04-08 01:53:00,
2013-04-07 22:03:00,45.8,45.8,29.91,SW,225,0.0,5.4,100,0.00,,,0.00,WSDL version 423,2013-04-08 02:03:00,
2013-04-07 22:13:00,45.6,45.6,29.91,WNW,289,0.0,4.0,100,-99.99,,,-99.99,WSDL version 423,2013-04-08 02:13:00,
2013-04-07 22:23:00,45.3,45.3,29.91,SSW,199,3.4,5.8,100,0.00,,,0.00,WSDL version 423,2013-04-08 02:23:00,
2013-04-07 22:33:00,45.3,45.3,29.90,South,180,2.9,5.8,100,0.00,,,0.00,WSDL version 423,2013-04-08 02:33:00,
2013-04-07 22:43:00,45.2,45.2,29.90,South,190,0.0,4.9,100,0.00,,,0.00,WSDL version 423,2013-04-08 02:43:00,
2013-04-07 22:53:00,45.2,45.2,29.90,SSW,210,0.0,8.1,100,0.00,,,0.00,WSDL version 423,2013-04-08 02:53:00,
2013-04-07 23:05:00,45.2,45.2,29.90,South,174,0.0,4.5,100,0.00,,,0.00,WSDL version 423,2013-04-08 03:05:00,
2013-04-07 23:15:00,45.1,45.1,29.90,South,183,0.0,4.5,100,0.00,,,0.00,WSDL version 423,2013-04-08 03:15:00,
2013-04-07 23:25:00,45.0,45.0,29.90,SW,214,0.0,5.8,100,0.00,,,0.00,WSDL version 423,2013-04-08 03:25:00,
2013-04-07 23:35:00,45.0,45.0,29.90,South,190,1.8,4.0,100,0.00,,,0.00,WSDL version 423,2013-04-08 03:35:00,
2013-04-07 23:47:00,44.6,44.6,29.90,South,169,0.0,4.9,100,0.00,,,0.00,WSDL version 423,2013-04-08 03:47:00,
2013-04-07 23:57:00,44.8,44.8,29.90,WSW,238,1.6,7.2,100,0.00,,,0.00,WSDL version 423,2013-04-08 03:57:00,